Time;durP1;ratioP1;P1;durP2;ratioP2;P2;SDS_P1;SDS_P2;PMS_P1;PMS_P2;Temp;Humidity;BMP_temperature;BMP_pressure;BME280_temperature;BME280_humidity;BME280_pressure;Samples;Min_cycle;Max_cycle;Signal;HPM_P1;HPM_P2
2023/01/08 00:01:26;;;;;;;;;;;;;;;8.45;100.00;100333.84;5052979;28;20338;-80
2023/01/08 00:03:51;;;;;;;;;;;;;;;8.47;100.00;100313.50;5037511;28;19925;-79
2023/01/08 00:06:20;;;;;;;;;;;;;;;8.48;100.00;100309.88;5053320;28;19924;-80
2023/01/08 00:08:45;;;;;;;;;;;;;;;8.51;100.00;100314.00;5054160;28;19920;-80
2023/01/08 00:11:10;;;;;;;;;;;;;;;8.53;100.00;100302.34;5053044;28;19931;-79
2023/01/08 00:13:36;;;;;;;;;;;;;;;8.54;100.00;100304.00;5052355;28;19928;-80
2023/01/08 00:16:11;;;;;;;;;;;;;;;8.55;100.00;100300.41;5053124;28;19956;-80
2023/01/08 00:18:37;;;;;;;;;;;;;;;8.54;100.00;100288.22;5052862;28;19963;-80
2023/01/08 00:21:02;;;;;;;;;;;;;;;8.55;100.00;100289.88;5037678;28;19987;-79
2023/01/08 00:23:28;;;;;;;;;;;;;;;8.57;100.00;100290.56;5054467;28;19921;-80
2023/01/08 00:25:53;;;;;;;;;;;;;;;8.57;100.00;100293.19;5053708;28;19924;-80
2023/01/08 00:28:19;;;;;;;;;;;;;;;8.59;100.00;100293.03;5054162;28;19928;-80
2023/01/08 00:30:45;;;;;;;;;;;;;;;8.60;100.00;100294.69;5052774;28;19920;-79
2023/01/08 00:33:11;;;;;;;;;;;;;;;8.58;100.00;100284.31;5053101;28;20374;-80
2023/01/08 00:35:36;;;;;;;;;;;;;;;8.57;100.00;100276.56;5036817;28;19974;-80
2023/01/08 00:38:02;;;;;;;;;;;;;;;8.58;100.00;100271.19;5053678;28;20380;-79
2023/01/08 00:40:27;;;;;;;;;;;;;;;8.63;100.00;100273.34;5055060;28;19917;-80
2023/01/08 00:42:52;;;;;;;;;;;;;;;8.64;100.00;100283.72;5053394;28;19921;-82
2023/01/08 00:45:17;;;;;;;;;;;;;;;8.59;100.00;100270.19;5052693;28;20309;-79
2023/01/08 00:47:43;;;;;;;;;;;;;;;8.62;100.00;100283.06;5043194;28;20038;-79
2023/01/08 00:50:08;;;;;;;;;;;;;;;8.62;100.00;100293.56;5052554;28;19917;-79
2023/01/08 00:52:33;;;;;;;;;;;;;;;8.62;100.00;100279.56;5036565;28;19927;-79
2023/01/08 00:54:59;;;;;;;;;;;;;;;8.56;100.00;100274.94;5052758;28;19925;-80
2023/01/08 00:57:24;;;;;;;;;;;;;;;8.49;100.00;100273.88;5051483;28;19921;-80
2023/01/08 00:59:49;;;;;;;;;;;;;;;8.45;100.00;100276.00;5050227;28;19978;-79
2023/01/08 01:02:14;;;;;;;;;;;;;;;8.39;100.00;100279.19;5059753;28;19916;-81
2023/01/08 01:04:40;;;;;;;;;;;;;;;8.32;100.00;100288.63;5054245;28;20031;-81
2023/01/08 01:07:05;;;;;;;;;;;;;;;8.27;100.00;100280.38;5051415;28;20363;-80
2023/01/08 01:09:30;;;;;;;;;;;;;;;8.26;100.00;100278.72;5052400;28;20030;-80
2023/01/08 01:11:56;;;;;;;;;;;;;;;8.22;100.00;100284.25;5052724;28;19920;-78
2023/01/08 01:14:21;;;;;;;;;;;;;;;8.27;100.00;100286.44;5051630;28;19921;-80
2023/01/08 01:16:47;;;;;;;;;;;;;;;8.29;100.00;100297.63;5051655;28;19924;-79
2023/01/08 01:19:16;;;;;;;;;;;;;;;8.30;100.00;100286.16;5049982;28;19932;-81
2023/01/08 01:21:41;;;;;;;;;;;;;;;8.33;100.00;100290.28;5053502;28;19913;-80
2023/01/08 01:24:09;;;;;;;;;;;;;;;8.34;100.00;100291.94;5052307;28;19921;-80
2023/01/08 01:26:34;;;;;;;;;;;;;;;8.33;100.00;100293.75;5060185;28;19927;-79
2023/01/08 01:28:59;;;;;;;;;;;;;;;8.29;100.00;100302.06;5050109;28;20032;-80
2023/01/08 01:31:26;;;;;;;;;;;;;;;8.22;100.00;100286.06;5051013;28;19920;-80
2023/01/08 01:33:51;;;;;;;;;;;;;;;8.27;100.00;100296.13;5051491;28;19919;-80
2023/01/08 01:36:18;;;;;;;;;;;;;;;8.31;100.00;100286.97;5052697;28;20000;-80
2023/01/08 01:38:44;;;;;;;;;;;;;;;8.30;100.00;100275.66;5053101;28;19931;-80
2023/01/08 01:41:23;;;;;;;;;;;;;;;8.27;100.00;100254.91;5051470;28;20336;-79
2023/01/08 01:43:49;;;;;;;;;;;;;;;8.28;100.00;100271.53;5051644;28;20602;-80
2023/01/08 01:46:40;;;;;;;;;;;;;;;8.29;100.00;100267.91;5051650;28;20073;-80
2023/01/08 01:49:10;;;;;;;;;;;;;;;8.28;100.00;100276.78;5049476;28;19959;-80
2023/01/08 01:51:36;;;;;;;;;;;;;;;8.27;100.00;100275.94;5050564;28;19928;-79
2023/01/08 01:54:02;;;;;;;;;;;;;;;8.29;100.00;100286.31;5051930;28;19921;-80
2023/01/08 01:56:28;;;;;;;;;;;;;;;8.30;100.00;100280.91;5051945;28;19928;-79
2023/01/08 01:58:54;;;;;;;;;;;;;;;8.32;100.00;100283.38;5052374;28;19921;-80
2023/01/08 02:01:19;;;;;;;;;;;;;;;8.32;100.00;100289.47;5049688;28;20053;-80
2023/01/08 02:03:44;;;;;;;;;;;;;;;8.33;100.00;100295.56;5051549;28;19955;-79
2023/01/08 02:06:14;;;;;;;;;;;;;;;8.32;100.00;100294.72;5036712;28;19925;-79
2023/01/08 02:08:39;;;;;;;;;;;;;;;8.29;100.00;100295.00;5051758;28;20015;-79
2023/01/08 02:11:15;;;;;;;;;;;;;;;8.23;100.00;100306.97;5051031;28;20031;-80
2023/01/08 02:13:45;;;;;;;;;;;;;;;8.19;100.00;100321.38;5051420;28;19928;-80
2023/01/08 02:16:24;;;;;;;;;;;;;;;8.14;100.00;100320.97;5051803;28;19967;-80
2023/01/08 02:18:56;;;;;;;;;;;;;;;8.15;100.00;100320.00;5050906;28;19925;-80
2023/01/08 02:21:35;;;;;;;;;;;;;;;8.16;100.00;100310.31;5051263;28;19923;-79
2023/01/08 02:24:12;;;;;;;;;;;;;;;8.13;100.00;100308.00;5050328;28;20355;-81
2023/01/08 02:26:37;;;;;;;;;;;;;;;8.15;100.00;100304.25;5051160;28;19921;-80
2023/01/08 02:29:07;;;;;;;;;;;;;;;8.14;100.00;100302.56;5049728;28;19917;-79
2023/01/08 02:31:34;;;;;;;;;;;;;;;8.22;100.00;100293.97;5051092;28;19922;-80
2023/01/08 02:33:59;;;;;;;;;;;;;;;8.20;100.00;100280.13;5051362;28;19920;-79
2023/01/08 02:36:24;;;;;;;;;;;;;;;8.16;100.00;100276.97;5051325;28;20482;-79
2023/01/08 02:39:02;;;;;;;;;;;;;;;8.13;100.00;100272.00;5051577;28;19920;-79
2023/01/08 02:41:46;;;;;;;;;;;;;;;8.10;100.00;100259.19;5048844;28;19969;-79
2023/01/08 02:44:16;;;;;;;;;;;;;;;8.12;100.00;100251.97;5051471;28;20448;-80
2023/01/08 02:46:42;;;;;;;;;;;;;;;8.09;100.00;100247.00;5050271;28;19917;-80
2023/01/08 02:49:09;;;;;;;;;;;;;;;8.08;100.00;100244.50;5051568;28;19930;-80
2023/01/08 02:51:39;;;;;;;;;;;;;;;8.04;100.00;100254.50;5049901;28;20385;-79
2023/01/08 02:54:08;;;;;;;;;;;;;;;7.98;100.00;100242.78;5052229;28;20027;-79
2023/01/08 02:56:35;;;;;;;;;;;;;;;7.94;100.00;100237.97;5057909;28;19921;-80
2023/01/08 02:59:02;;;;;;;;;;;;;;;7.91;100.00;100249.59;5049191;28;19925;-81
2023/01/08 03:01:27;;;;;;;;;;;;;;;7.91;100.00;100252.25;5050949;28;19920;-79
2023/01/08 03:03:55;;;;;;;;;;;;;;;7.87;100.00;100243.00;5050285;28;19940;-80
2023/01/08 03:06:21;;;;;;;;;;;;;;;7.87;100.00;100243.00;5050944;28;19927;-81
2023/01/08 03:08:48;;;;;;;;;;;;;;;7.81;100.00;100227.81;5050159;28;19928;-80
2023/01/08 03:11:14;;;;;;;;;;;;;;;7.79;100.00;100225.31;5052745;28;20367;-81
2023/01/08 03:13:52;;;;;;;;;;;;;;;7.76;100.00;100230.06;5051693;28;19917;-80
2023/01/08 03:16:21;;;;;;;;;;;;;;;7.71;100.00;100222.63;5057000;28;19917;-80
2023/01/08 03:18:50;;;;;;;;;;;;;;;7.68;100.00;100217.66;5052539;28;20006;-79
2023/01/08 03:21:17;;;;;;;;;;;;;;;7.67;100.00;100213.38;5049776;28;20578;-80
2023/01/08 03:23:43;;;;;;;;;;;;;;;7.65;100.00;100210.06;5053734;28;19920;-80
2023/01/08 03:26:09;;;;;;;;;;;;;;;7.60;100.00;100191.31;5055564;28;20352;-81
2023/01/08 03:28:43;;;;;;;;;;;;;;;7.55;100.00;100196.16;5054665;28;20344;-80
2023/01/08 03:31:08;;;;;;;;;;;;;;;7.50;100.00;100206.28;5068639;28;19921;-80
2023/01/08 03:33:34;;;;;;;;;;;;;;;7.48;100.00;100193.28;5053147;28;19920;-80
2023/01/08 03:36:02;;;;;;;;;;;;;;;7.42;100.00;100201.75;5054696;28;20070;-80
2023/01/08 03:38:33;;;;;;;;;;;;;;;7.38;100.00;100208.25;5056347;28;19955;-79
2023/01/08 03:41:02;;;;;;;;;;;;;;;7.30;100.00;100198.50;5053338;28;19925;-79
2023/01/08 03:43:28;;;;;;;;;;;;;;;7.25;100.00;100198.13;5053148;28;20360;-80
2023/01/08 03:45:57;;;;;;;;;;;;;;;7.20;100.00;100197.69;5036102;28;19928;-80
2023/01/08 03:48:22;;;;;;;;;;;;;;;7.14;100.00;100200.88;5053404;28;20001;-80
2023/01/08 03:50:48;;;;;;;;;;;;;;;7.11;100.00;100201.19;5053642;28;20011;-81
2023/01/08 03:53:13;;;;;;;;;;;;;;;7.09;100.00;100190.00;5054348;28;20344;-80
2023/01/08 03:55:39;;;;;;;;;;;;;;;7.07;100.00;100197.19;5055028;28;20579;-78
2023/01/08 03:58:04;;;;;;;;;;;;;;;7.05;100.00;100210.44;5053945;28;19924;-78
2023/01/08 04:00:29;;;;;;;;;;;;;;;7.06;100.00;100200.81;5053014;28;19929;-79
2023/01/08 04:02:55;;;;;;;;;;;;;;;7.05;100.00;100205.19;5054034;28;19916;-80
2023/01/08 04:05:20;;;;;;;;;;;;;;;7.06;100.00;100206.06;5054019;28;20303;-80
2023/01/08 04:07:45;;;;;;;;;;;;;;;7.06;100.00;100206.06;5038758;28;20026;-79
2023/01/08 04:10:10;;;;;;;;;;;;;;;7.04;100.00;100210.63;5053480;28;19924;-79
2023/01/08 04:12:36;;;;;;;;;;;;;;;7.06;100.00;100214.75;5053677;28;20710;-78
2023/01/08 04:15:01;;;;;;;;;;;;;;;7.04;100.00;100215.84;5053312;28;19928;-80
2023/01/08 04:17:26;;;;;;;;;;;;;;;7.01;100.00;100219.56;5060501;28;20015;-79
2023/01/08 04:19:51;;;;;;;;;;;;;;;6.98;100.00;100220.69;5052943;28;19928;-80
2023/01/08 04:22:17;;;;;;;;;;;;;;;6.98;100.00;100225.13;5053319;28;20498;-80
2023/01/08 04:24:42;;;;;;;;;;;;;;;6.95;100.00;100226.22;5053352;28;19993;-80
2023/01/08 04:27:07;;;;;;;;;;;;;;;6.94;100.00;100236.84;5051411;28;20125;-81
2023/01/08 04:29:32;;;;;;;;;;;;;;;6.94;100.00;100245.53;5053422;28;19929;-79
2023/01/08 04:31:58;;;;;;;;;;;;;;;6.96;100.00;100248.84;5053608;28;20322;-80
2023/01/08 04:34:23;;;;;;;;;;;;;;;6.95;100.00;100251.66;5052693;28;19925;-79
2023/01/08 04:36:49;;;;;;;;;;;;;;;6.94;100.00;100250.78;5053730;28;19931;-81
2023/01/08 04:39:14;;;;;;;;;;;;;;;6.95;100.00;100254.28;5052984;28;20299;-79
2023/01/08 04:41:39;;;;;;;;;;;;;;;6.93;100.00;100270.13;5050816;28;19928;-80
2023/01/08 04:44:04;;;;;;;;;;;;;;;6.90;100.00;100273.06;5051774;28;20027;-80
2023/01/08 04:46:30;;;;;;;;;;;;;;;6.91;100.00;100269.44;5052822;28;20490;-80
2023/01/08 04:48:55;;;;;;;;;;;;;;;6.90;100.00;100273.06;5054035;28;19921;-81
2023/01/08 04:51:22;;;;;;;;;;;;;;;6.88;100.00;100277.63;5053240;28;20376;-79
2023/01/08 04:53:47;;;;;;;;;;;;;;;6.86;100.00;100278.69;5052431;28;20542;-80
2023/01/08 04:56:12;;;;;;;;;;;;;;;6.87;100.00;100280.38;5052464;28;19964;-80
2023/01/08 04:58:38;;;;;;;;;;;;;;;6.87;100.00;100281.19;5052297;28;19924;-79
2023/01/08 05:01:14;;;;;;;;;;;;;;;6.88;100.00;100292.50;5052466;28;19923;-81
2023/01/08 05:03:40;;;;;;;;;;;;;;;6.87;100.00;100294.31;5059523;28;20332;-80
2023/01/08 05:06:06;;;;;;;;;;;;;;;6.89;100.00;100297.63;5051106;28;20003;-79
2023/01/08 05:08:31;;;;;;;;;;;;;;;6.91;100.00;100292.25;5052828;28;19971;-80
2023/01/08 05:10:59;;;;;;;;;;;;;;;6.90;100.00;100301.91;5052683;28;19939;-80
2023/01/08 05:13:24;;;;;;;;;;;;;;;6.92;100.00;100307.81;5034547;28;19951;-79
2023/01/08 05:15:50;;;;;;;;;;;;;;;6.92;100.00;100315.69;5034520;28;20395;-79
2023/01/08 05:18:15;;;;;;;;;;;;;;;6.93;100.00;100321.78;5051016;28;20007;-80
2023/01/08 05:20:40;;;;;;;;;;;;;;;6.93;100.00;100327.84;5052408;28;19927;-79
2023/01/08 05:23:05;;;;;;;;;;;;;;;6.91;100.00;100342.91;5052558;28;19925;-80
2023/01/08 05:25:30;;;;;;;;;;;;;;;6.89;100.00;100347.47;5051952;28;19921;-79
2023/01/08 05:27:56;;;;;;;;;;;;;;;6.93;100.00;100337.53;5050157;28;19928;-79
2023/01/08 05:30:21;;;;;;;;;;;;;;;6.94;100.00;100360.16;5050739;28;21552;-80
2023/01/08 05:32:46;;;;;;;;;;;;;;;6.96;100.00;100374.78;5057955;28;19936;-79
2023/01/08 05:35:11;;;;;;;;;;;;;;;7.00;100.00;100373.56;5051873;28;19989;-80
2023/01/08 05:37:37;;;;;;;;;;;;;;;7.08;100.00;100374.69;5052631;28;19925;-80
2023/01/08 05:40:03;;;;;;;;;;;;;;;7.13;100.00;100361.94;5051076;28;20586;-78
2023/01/08 05:42:28;;;;;;;;;;;;;;;7.16;100.00;100365.13;5051604;28;19920;-78
2023/01/08 05:44:53;;;;;;;;;;;;;;;7.17;100.00;100365.97;5049325;28;19925;-80
2023/01/08 05:47:18;;;;;;;;;;;;;;;7.16;100.00;100359.03;5052727;28;20046;-81
2023/01/08 05:49:44;;;;;;;;;;;;;;;7.16;100.00;100353.78;5051228;28;19973;-79
2023/01/08 05:52:09;;;;;;;;;;;;;;;7.16;100.00;100369.53;5052032;28;19925;-81
2023/01/08 05:54:34;;;;;;;;;;;;;;;7.16;100.00;100377.41;5051496;28;19971;-81
2023/01/08 05:57:00;;;;;;;;;;;;;;;7.16;100.00;100374.78;5053044;28;19960;-79
2023/01/08 05:59:25;;;;;;;;;;;;;;;7.13;100.00;100373.28;5051952;28;19981;-81
2023/01/08 06:01:50;;;;;;;;;;;;;;;7.15;100.00;100376.59;5050662;28;19924;-80
2023/01/08 06:04:15;;;;;;;;;;;;;;;7.16;100.00;100369.53;5052090;28;20137;-81
2023/01/08 06:06:40;;;;;;;;;;;;;;;7.21;100.00;100377.84;5051969;28;20023;-80
2023/01/08 06:09:06;;;;;;;;;;;;;;;7.21;100.00;100369.97;5035611;28;19924;-80
2023/01/08 06:11:31;;;;;;;;;;;;;;;7.23;100.00;100370.66;5051237;28;19937;-80
2023/01/08 06:13:56;;;;;;;;;;;;;;;7.28;100.00;100363.19;5050291;28;20004;-81
2023/01/08 06:16:21;;;;;;;;;;;;;;;7.30;100.00;100360.41;5050590;28;20307;-79
2023/01/08 06:18:47;;;;;;;;;;;;;;;7.29;100.00;100356.13;5034737;28;20190;-80
2023/01/08 06:21:13;;;;;;;;;;;;;;;7.27;100.00;100355.44;5053125;28;19971;-80
2023/01/08 06:23:38;;;;;;;;;;;;;;;7.22;100.00;100345.34;5051266;28;21829;-80
2023/01/08 06:26:04;;;;;;;;;;;;;;;7.21;100.00;100351.59;5051107;28;19970;-79
2023/01/08 06:28:29;;;;;;;;;;;;;;;7.16;100.00;100348.53;5033562;28;20050;-80
2023/01/08 06:31:01;;;;;;;;;;;;;;;7.09;100.00;100337.78;5049596;28;19924;-79
2023/01/08 06:33:26;;;;;;;;;;;;;;;7.03;100.00;100338.31;5052094;28;19924;-80
2023/01/08 06:35:52;;;;;;;;;;;;;;;6.99;100.00;100332.56;5051493;28;19921;-76
2023/01/08 06:38:18;;;;;;;;;;;;;;;6.96;100.00;100324.13;5051764;28;19920;-81
2023/01/08 06:40:43;;;;;;;;;;;;;;;6.93;100.00;100327.84;5051902;28;19917;-80
2023/01/08 06:43:09;;;;;;;;;;;;;;;6.93;100.00;100324.41;5058449;28;19948;-78
2023/01/08 06:45:34;;;;;;;;;;;;;;;6.91;100.00;100319.28;5049255;28;19928;-80
2023/01/08 06:48:04;;;;;;;;;;;;;;;6.92;100.00;100320.13;5051092;28;20583;-79
2023/01/08 06:50:29;;;;;;;;;;;;;;;6.94;100.00;100313.75;5050307;28;19921;-80
2023/01/08 06:52:55;;;;;;;;;;;;;;;6.94;100.00;100308.50;5051892;28;19921;-79
2023/01/08 06:55:21;;;;;;;;;;;;;;;6.98;100.00;100303.81;5049883;28;19955;-80
2023/01/08 06:57:46;;;;;;;;;;;;;;;7.00;100.00;100307.13;5070696;28;19921;-79
2023/01/08 07:00:11;;;;;;;;;;;;;;;6.98;100.00;100309.88;5055000;28;19932;-80
2023/01/08 07:02:37;;;;;;;;;;;;;;;6.99;100.00;100310.75;5053489;28;21487;-81
2023/01/08 07:05:02;;;;;;;;;;;;;;;6.94;100.00;100316.38;5039432;28;19925;-80
2023/01/08 07:07:28;;;;;;;;;;;;;;;6.91;100.00;100314.06;5058131;28;19924;-79
2023/01/08 07:09:53;;;;;;;;;;;;;;;6.92;100.00;100320.94;5055853;28;19920;-80
2023/01/08 07:12:18;;;;;;;;;;;;;;;6.91;100.00;100328.97;5056332;28;19920;-79
2023/01/08 07:14:43;;;;;;;;;;;;;;;6.91;100.00;100328.97;5038539;28;20027;-80
2023/01/08 07:17:09;;;;;;;;;;;;;;;6.93;100.00;100327.03;5054738;28;19936;-79
2023/01/08 07:19:35;;;;;;;;;;;;;;;6.94;100.00;100331.31;5055247;28;20023;-80
2023/01/08 07:22:00;;;;;;;;;;;;;;;6.96;100.00;100332.81;5055805;28;19924;-79
2023/01/08 07:24:25;;;;;;;;;;;;;;;6.97;100.00;100331.84;5053526;28;19925;-80
2023/01/08 07:26:51;;;;;;;;;;;;;;;6.99;100.00;100332.56;5053869;28;19920;-80
2023/01/08 07:29:16;;;;;;;;;;;;;;;6.99;100.00;100343.03;5053985;28;20004;-81
2023/01/08 07:31:41;;;;;;;;;;;;;;;6.97;100.00;100334.47;5053779;28;20007;-79
2023/01/08 07:34:06;;;;;;;;;;;;;;;6.95;100.00;100330.34;5052916;28;20459;-80
2023/01/08 07:36:32;;;;;;;;;;;;;;;6.94;100.00;100333.91;5053062;28;20771;-81
2023/01/08 07:38:57;;;;;;;;;;;;;;;6.89;100.00;100342.22;5053162;28;19927;-81
2023/01/08 07:41:22;;;;;;;;;;;;;;;6.87;100.00;100354.63;5054850;28;20015;-80
2023/01/08 07:43:48;;;;;;;;;;;;;;;6.80;100.00;100343.03;5053924;28;19924;-80
2023/01/08 07:46:13;;;;;;;;;;;;;;;6.77;100.00;100348.56;5052708;28;19920;-81
2023/01/08 07:48:39;;;;;;;;;;;;;;;6.74;100.00;100348.84;5051900;28;19925;-79
2023/01/08 07:51:05;;;;;;;;;;;;;;;6.70;100.00;100348.28;5052831;28;19924;-80
2023/01/08 07:53:31;;;;;;;;;;;;;;;6.66;100.00;100359.19;5052815;28;19924;-80
2023/01/08 07:56:00;;;;;;;;;;;;;;;6.55;100.00;100349.63;5052478;28;19931;-79
2023/01/08 07:58:25;;;;;;;;;;;;;;;6.56;100.00;100373.09;5053995;28;19982;-79
2023/01/08 08:00:51;;;;;;;;;;;;;;;6.51;100.00;100370.06;5054006;28;19920;-79
2023/01/08 08:03:16;;;;;;;;;;;;;;;6.48;100.00;100370.31;5053168;28;19928;-80
2023/01/08 08:05:41;;;;;;;;;;;;;;;6.46;100.00;100374.88;5053481;28;19942;-79
2023/01/08 08:08:08;;;;;;;;;;;;;;;6.48;100.00;100380.81;5053711;28;19932;-79
2023/01/08 08:10:33;;;;;;;;;;;;;;;6.50;100.00;100373.66;5053668;28;19917;-79
2023/01/08 08:12:58;;;;;;;;;;;;;;;6.55;100.00;100378.47;5053172;28;19930;-80
2023/01/08 08:15:24;;;;;;;;;;;;;;;6.57;100.00;100377.38;5051399;28;19928;-79
2023/01/08 08:17:49;;;;;;;;;;;;;;;6.63;100.00;100383.06;5054068;28;20215;-80
2023/01/08 08:20:14;;;;;;;;;;;;;;;6.65;100.00;100378.50;5051507;28;19936;-79
2023/01/08 08:22:39;;;;;;;;;;;;;;;6.62;100.00;100382.25;5051729;28;20052;-80
2023/01/08 08:25:05;;;;;;;;;;;;;;;6.62;100.00;100378.75;5052460;28;19921;-79
2023/01/08 08:27:30;;;;;;;;;;;;;;;6.58;100.00;100381.66;5035552;28;19940;-78
2023/01/08 08:29:55;;;;;;;;;;;;;;;6.55;100.00;100375.84;5052701;28;19947;-79
2023/01/08 08:32:20;;;;;;;;;;;;;;;6.51;100.00;100372.69;5035796;28;19928;-80
2023/01/08 08:34:46;;;;;;;;;;;;;;;6.58;100.00;100379.06;5050588;28;19925;-79
2023/01/08 08:37:11;;;;;;;;;;;;;;;6.57;100.00;100374.75;5051562;28;20369;-80
2023/01/08 08:39:37;;;;;;;;;;;;;;;6.70;100.00;100374.50;5051963;28;19924;-80
2023/01/08 08:42:03;;;;;;;;;;;;;;;6.79;100.00;100373.69;5052753;28;19966;-80
2023/01/08 08:44:28;;;;;;;;;;;;;;;6.82;100.00;100367.34;5051113;28;20376;-78
2023/01/08 08:46:53;;;;;;;;;;;;;;;6.84;100.00;100354.94;5052115;28;19935;-79
2023/01/08 08:49:18;;;;;;;;;;;;;;;6.90;100.00;100343.88;5034588;28;19928;-79
2023/01/08 08:51:44;;;;;;;;;;;;;;;6.97;100.00;100325.78;5053074;28;19924;-80
2023/01/08 08:54:10;;;;;;;;;;;;;;;7.04;100.00;100324.25;5035507;28;19978;-81
2023/01/08 08:56:35;;;;;;;;;;;;;;;7.09;100.00;100305.47;5038324;28;20301;-78
2023/01/08 08:59:00;;;;;;;;;;;;;;;7.33;100.00;100291.88;5049946;28;20298;-79
2023/01/08 09:01:26;;;;;;;;;;;;;;;7.31;100.00;100284.13;5052302;28;19978;-79
2023/01/08 09:03:51;;;;;;;;;;;;;;;7.28;100.00;100267.84;5051378;28;20485;-79
2023/01/08 09:06:16;;;;;;;;;;;;;;;7.39;100.00;100247.50;5051296;28;20623;-85
2023/01/08 09:08:42;;;;;;;;;;;;;;;7.45;100.00;100238.22;5051464;28;19932;-79
2023/01/08 09:11:07;;;;;;;;;;;;;;;7.49;100.00;100230.88;5051905;28;19979;-79
2023/01/08 09:13:32;;;;;;;;;;;;;;;7.58;100.00;100211.66;5051386;28;19920;-79
2023/01/08 09:15:58;;;;;;;;;;;;;;;7.89;100.00;100203.44;5048849;28;19925;-80
2023/01/08 09:18:24;;;;;;;;;;;;;;;7.97;100.00;100187.75;5050697;28;20047;-80
2023/01/08 09:20:49;;;;;;;;;;;;;;;8.08;100.00;100174.41;5051018;28;20398;-80
2023/01/08 09:23:14;;;;;;;;;;;;;;;8.38;100.00;100156.56;5051332;28;19924;-80
2023/01/08 09:25:39;;;;;;;;;;;;;;;8.48;100.00;100149.44;5051504;28;19975;-80
2023/01/08 09:28:06;;;;;;;;;;;;;;;8.34;100.00;100129.75;5033449;28;19940;-79
2023/01/08 09:30:32;;;;;;;;;;;;;;;8.33;100.00;100119.41;5049357;28;19927;-80
2023/01/08 09:32:58;;;;;;;;;;;;;;;8.39;100.00;100116.16;5049876;28;19964;-80
2023/01/08 09:35:23;;;;;;;;;;;;;;;8.63;100.00;100113.72;5033454;28;20496;-80
2023/01/08 09:37:49;;;;;;;;;;;;;;;9.12;100.00;100107.03;5035247;28;20011;-80
2023/01/08 09:40:15;;;;;;;;;;;;;;;9.66;100.00;100092.53;5050159;28;20403;-80
2023/01/08 09:42:40;;;;;;;;;;;;;;;10.20;100.00;100078.06;5049864;28;19924;-79
2023/01/08 09:45:11;;;;;;;;;;;;;;;10.54;100.00;100051.50;5050739;28;19974;-82
2023/01/08 09:47:38;;;;;;;;;;;;;;;10.88;100.00;100034.53;5049783;28;19920;-80
2023/01/08 09:50:06;;;;;;;;;;;;;;;11.49;100.00;100032.88;5050043;28;19970;-80
2023/01/08 09:52:31;;;;;;;;;;;;;;;11.69;100.00;100024.47;5051744;28;19932;-80
2023/01/08 09:54:57;;;;;;;;;;;;;;;11.85;100.00;100008.47;5050043;28;19920;-79
2023/01/08 09:57:22;;;;;;;;;;;;;;;12.68;100.00;100009.31;5050327;28;19916;-80
2023/01/08 09:59:48;;;;;;;;;;;;;;;13.00;100.00;100007.25;5032933;28;20307;-78
2023/01/08 10:02:18;;;;;;;;;;;;;;;12.50;100.00;100007.03;5051424;28;20035;-79
2023/01/08 10:04:43;;;;;;;;;;;;;;;12.51;100.00;100003.38;5052507;28;20015;-80
2023/01/08 10:07:12;;;;;;;;;;;;;;;12.85;100.00;100006.47;5049907;28;20527;-80
2023/01/08 10:09:38;;;;;;;;;;;;;;;12.65;100.00;100007.03;5051626;28;19967;-80
2023/01/08 10:12:05;;;;;;;;;;;;;;;12.62;100.00;100010.03;5049812;28;19920;-79
2023/01/08 10:14:38;;;;;;;;;;;;;;;12.41;100.00;100013.44;5051038;28;19929;-79
2023/01/08 10:17:13;;;;;;;;;;;;;;;12.79;100.00;100013.31;5051303;28;19928;-80
2023/01/08 10:19:38;;;;;;;;;;;;;;;12.93;100.00;100007.19;5047177;28;19927;-80
2023/01/08 10:22:09;;;;;;;;;;;;;;;12.74;100.00;100000.63;5049761;28;20528;-80
2023/01/08 10:24:36;;;;;;;;;;;;;;;12.74;100.00;99992.69;5063401;28;19921;-80
2023/01/08 10:27:06;;;;;;;;;;;;;;;13.04;100.00;99987.31;5049448;28;19936;-79
2023/01/08 10:29:31;;;;;;;;;;;;;;;13.28;100.00;99982.66;5052024;28;20556;-79
2023/01/08 10:32:00;;;;;;;;;;;;;;;12.99;100.00;99967.69;5038874;28;19932;-80
2023/01/08 10:34:46;;;;;;;;;;;;;;;13.32;100.00;99968.06;5056308;28;19971;-80
2023/01/08 10:37:26;;;;;;;;;;;;;;;13.72;100.00;99965.78;5056479;28;19924;-80
2023/01/08 10:39:53;;;;;;;;;;;;;;;13.21;100.00;99960.59;5061055;28;19925;-80
2023/01/08 10:42:19;;;;;;;;;;;;;;;12.98;100.00;99951.00;5057880;28;19916;-81
2023/01/08 10:44:51;;;;;;;;;;;;;;;12.83;100.00;99958.16;5039946;28;19928;-81
2023/01/08 10:47:17;;;;;;;;;;;;;;;12.26;100.00;99963.16;5058045;28;20479;-81
2023/01/08 10:49:44;;;;;;;;;;;;;;;12.26;100.00;99957.03;5057341;28;19924;-81
2023/01/08 10:52:23;;;;;;;;;;;;;;;11.42;100.00;99952.66;5058733;28;20730;-81
2023/01/08 10:54:48;;;;;;;;;;;;;;;11.00;100.00;99943.41;5057713;28;20741;-81
2023/01/08 10:57:21;;;;;;;;;;;;;;;11.00;100.00;99951.31;5057053;28;19917;-81
2023/01/08 10:59:46;;;;;;;;;;;;;;;11.69;100.00;99946.03;5058462;28;20455;-79
2023/01/08 11:02:19;;;;;;;;;;;;;;;11.57;100.00;99947.44;5057833;28;19932;-80
2023/01/08 11:04:49;;;;;;;;;;;;;;;11.76;100.00;99937.34;5057926;28;19946;-80
2023/01/08 11:07:19;;;;;;;;;;;;;;;12.14;100.00;99928.38;5056350;28;19956;-79
2023/01/08 11:09:48;;;;;;;;;;;;;;;11.02;100.00;99932.69;5058685;28;19913;-80
2023/01/08 11:12:34;;;;;;;;;;;;;;;10.46;100.00;99928.34;5058745;28;20011;-80
2023/01/08 11:15:00;;;;;;;;;;;;;;;9.80;100.00;99948.78;5060975;28;19920;-79
2023/01/08 11:17:25;;;;;;;;;;;;;;;9.58;100.00;99946.81;5082004;28;19947;-80
2023/01/08 11:19:51;;;;;;;;;;;;;;;9.57;100.00;99953.91;5042006;28;20485;-81
2023/01/08 11:22:24;;;;;;;;;;;;;;;9.65;100.00;99945.19;5051083;28;19927;-79
2023/01/08 11:24:50;;;;;;;;;;;;;;;9.11;100.00;99952.72;5057173;28;20459;-81
2023/01/08 11:27:33;;;;;;;;;;;;;;;8.90;100.00;99937.38;5057826;28;19923;-81
2023/01/08 11:30:25;;;;;;;;;;;;;;;8.72;100.00;99946.22;5057830;28;21552;-81
2023/01/08 11:32:54;;;;;;;;;;;;;;;9.20;100.00;99962.28;5054164;28;19925;-79
2023/01/08 11:35:23;;;;;;;;;;;;;;;9.26;100.00;99949.28;5057827;28;19917;-81
2023/01/08 11:37:59;;;;;;;;;;;;;;;8.95;100.00;99942.97;5058579;28;19935;-81
2023/01/08 11:40:37;;;;;;;;;;;;;;;8.60;100.00;99950.97;5055413;28;20004;-81
2023/01/08 11:43:05;;;;;;;;;;;;;;;8.54;100.00;99937.63;5052965;28;19920;-80
2023/01/08 11:45:49;;;;;;;;;;;;;;;8.51;100.00;99936.09;5051990;28;19932;-80
2023/01/08 11:48:23;;;;;;;;;;;;;;;8.48;100.00;99939.06;5052713;28;19921;-80
2023/01/08 11:50:49;;;;;;;;;;;;;;;8.47;100.00;99940.06;5053322;28;20825;-81
2023/01/08 11:53:17;;;;;;;;;;;;;;;8.47;100.00;99929.53;5054040;28;19928;-79
2023/01/08 11:56:00;;;;;;;;;;;;;;;8.40;100.00;99925.84;5055311;28;20007;-79
2023/01/08 11:58:50;;;;;;;;;;;;;;;8.28;100.00;99930.56;5054559;28;19978;-79
2023/01/08 12:01:43;;;;;;;;;;;;;;;8.37;100.00;99928.81;5053936;28;19917;-81
2023/01/08 12:04:11;;;;;;;;;;;;;;;8.34;100.00;99921.22;5055489;28;19970;-81
2023/01/08 12:06:36;;;;;;;;;;;;;;;8.20;100.00;99912.13;5053051;28;19916;-79
2023/01/08 12:09:09;;;;;;;;;;;;;;;8.24;100.00;99909.03;5050302;28;20042;-81
2023/01/08 12:11:54;;;;;;;;;;;;;;;8.17;100.00;99909.84;5053773;28;19925;-82
2023/01/08 12:14:26;;;;;;;;;;;;;;;8.12;100.00;99912.09;5052947;28;19948;-79
2023/01/08 12:17:10;;;;;;;;;;;;;;;8.10;100.00;99909.63;5053387;28;19932;-79
2023/01/08 12:19:41;;;;;;;;;;;;;;;8.23;100.00;99899.50;5049841;28;20384;-80
2023/01/08 12:22:09;;;;;;;;;;;;;;;8.18;100.00;99898.31;5060440;28;19968;-80
2023/01/08 12:24:44;;;;;;;;;;;;;;;8.16;100.00;99900.28;5060080;28;19928;-80
2023/01/08 12:27:27;;;;;;;;;;;;;;;8.21;100.00;99898.84;5051453;28;20012;-80
2023/01/08 12:29:53;;;;;;;;;;;;;;;8.20;100.00;99886.66;5051850;28;20690;-80
2023/01/08 12:32:18;;;;;;;;;;;;;;;8.19;100.00;99892.91;5059945;28;19986;-79
2023/01/08 12:35:03;;;;;;;;;;;;;;;8.19;100.00;99895.53;5057444;28;20458;-79
2023/01/08 12:37:41;;;;;;;;;;;;;;;8.14;100.00;99892.53;5054862;28;20632;-80
2023/01/08 12:40:36;;;;;;;;;;;;;;;8.14;100.00;99895.19;5055409;28;19997;-79